createdAt,value
2022-10-04T00:02:13.778Z,85.19
2022-10-04T00:05:07.628Z,84.92
2022-10-04T00:07:35.920Z,84.22
2022-10-04T00:10:15.075Z,84.61
2022-10-04T00:13:06.450Z,84.67
2022-10-04T00:15:39.913Z,85.05
2022-10-04T00:18:12.532Z,85.12
2022-10-04T00:20:48.396Z,85.19
2022-10-04T00:23:24.119Z,84.81
2022-10-04T00:25:55.962Z,84.96
2022-10-04T00:28:25.763Z,85.46
2022-10-04T00:31:14.597Z,85.95
2022-10-04T00:33:51.866Z,85.26
2022-10-04T00:36:24.448Z,85.24
2022-10-04T00:39:09.420Z,85.34
2022-10-04T00:41:48.045Z,85.42
2022-10-04T00:44:40.743Z,85.72
2022-10-04T00:47:31.971Z,85.35
2022-10-04T00:50:11.513Z,85.91
2022-10-04T00:52:45.367Z,85.90
2022-10-04T00:55:35.694Z,86.23
2022-10-04T00:58:03.874Z,86.16
2022-10-04T01:00:33.409Z,85.59
2022-10-04T01:03:11.985Z,85.58
2022-10-04T01:05:40.648Z,85.64
2022-10-04T01:12:04.803Z,84.91
2022-10-04T01:15:00.723Z,85.14
2022-10-04T01:17:27.325Z,84.83
2022-10-04T01:19:54.207Z,84.82
2022-10-04T01:22:37.143Z,86.04
2022-10-04T01:25:04.263Z,85.20
2022-10-04T01:27:41.282Z,85.26
2022-10-04T01:30:16.378Z,86.19
2022-10-04T01:32:45.185Z,85.57
2022-10-04T01:35:13.635Z,85.70
2022-10-04T01:37:40.332Z,85.55
2022-10-04T01:40:09.098Z,85.66
2022-10-04T01:42:40.369Z,85.93
2022-10-04T01:45:18.002Z,85.78
2022-10-04T01:47:48.959Z,85.37
2022-10-04T01:50:28.230Z,85.81
2022-10-04T01:52:56.853Z,85.42
2022-10-04T01:55:34.167Z,85.74
2022-10-04T01:58:13.901Z,85.74
2022-10-04T02:00:45.257Z,85.33
2022-10-04T02:03:17.947Z,85.57
2022-10-04T02:05:53.401Z,85.37
2022-10-04T02:08:27.231Z,85.49
2022-10-04T02:10:57.468Z,85.25
2022-10-04T02:13:24.451Z,85.66
2022-10-04T02:16:38.524Z,86.17
2022-10-04T02:19:05.126Z,85.64
2022-10-04T02:21:32.142Z,85.13
2022-10-04T02:23:58.806Z,84.71
2022-10-04T02:26:25.397Z,84.86
2022-10-04T02:28:51.999Z,85.21
2022-10-04T02:31:39.782Z,84.77
2022-10-04T02:34:06.606Z,85.73
2022-10-04T02:36:33.494Z,85.10
2022-10-04T02:42:59.779Z,84.98
2022-10-04T02:45:56.577Z,84.84
2022-10-04T02:48:23.110Z,85.25
2022-10-04T02:50:51.747Z,85.06
2022-10-04T02:53:22.600Z,85.50
2022-10-04T02:55:49.258Z,84.61
2022-10-04T02:58:18.378Z,85.25
2022-10-04T03:01:03.951Z,84.58
2022-10-04T03:03:35.210Z,84.10
2022-10-04T03:06:09.127Z,85.15
2022-10-04T03:08:44.426Z,84.61
2022-10-04T03:11:12.059Z,84.72
2022-10-04T03:13:39.771Z,84.05
2022-10-04T03:16:06.603Z,84.64
2022-10-04T03:18:33.304Z,84.83
2022-10-04T03:21:08.280Z,84.92
2022-10-04T03:23:34.748Z,84.71
2022-10-04T03:26:15.922Z,84.42
2022-10-04T03:28:42.815Z,84.52
2022-10-04T03:31:09.531Z,84.42
2022-10-04T03:34:40.876Z,84.77
2022-10-04T03:37:15.750Z,84.50
2022-10-04T03:43:31.785Z,84.35
2022-10-04T03:45:59.000Z,84.20
2022-10-04T03:48:37.620Z,84.72
2022-10-04T03:51:05.867Z,84.82
2022-10-04T03:53:43.501Z,84.59
2022-10-04T03:56:22.177Z,84.60
2022-10-04T03:58:49.634Z,84.71
2022-10-04T04:01:46.918Z,84.87
2022-10-04T04:08:10.203Z,84.71
2022-10-04T04:10:42.943Z,84.20
2022-10-04T04:13:29.329Z,84.53
2022-10-04T04:15:56.260Z,84.33
2022-10-04T04:18:27.834Z,84.79
2022-10-04T04:20:59.214Z,84.62
2022-10-04T04:23:39.269Z,84.43
2022-10-04T04:26:39.301Z,84.59
2022-10-04T04:29:07.075Z,84.16
2022-10-04T04:31:46.054Z,84.59
2022-10-04T04:34:24.918Z,84.55
2022-10-04T04:36:52.894Z,84.82
2022-10-04T04:39:43.816Z,84.40
2022-10-04T04:42:10.549Z,84.37
2022-10-04T04:44:47.509Z,84.01
2022-10-04T04:47:38.404Z,83.20
2022-10-04T04:50:15.664Z,83.38
2022-10-04T04:52:50.270Z,84.11
2022-10-04T04:55:23.449Z,83.78
2022-10-04T04:57:51.289Z,83.82
2022-10-04T05:00:19.511Z,83.88
2022-10-04T05:02:58.874Z,84.23
2022-10-04T05:05:27.319Z,84.69
2022-10-04T05:08:27.926Z,84.12
2022-10-04T05:11:01.518Z,84.11
2022-10-04T05:13:52.199Z,83.56
2022-10-04T05:16:21.767Z,83.98
2022-10-04T05:18:48.486Z,84.71
2022-10-04T05:21:24.514Z,84.21
2022-10-04T05:24:11.291Z,84.23
2022-10-04T05:26:37.904Z,84.87
2022-10-04T05:29:15.274Z,84.31
2022-10-04T05:31:50.157Z,84.41
2022-10-04T05:34:46.988Z,84.66
2022-10-04T05:37:20.678Z,84.64
2022-10-04T05:39:48.372Z,84.56
2022-10-04T05:42:30.631Z,85.06
2022-10-04T05:44:57.934Z,84.60
2022-10-04T05:47:28.962Z,85.16
2022-10-04T05:49:57.964Z,85.30
2022-10-04T05:52:30.059Z,85.00
2022-10-04T05:55:21.448Z,85.67
2022-10-04T05:58:18.287Z,85.49
2022-10-04T06:01:08.728Z,85.17
2022-10-04T06:04:00.766Z,84.97
2022-10-04T06:06:40.558Z,84.81
2022-10-04T06:09:32.104Z,85.36
2022-10-04T06:12:12.595Z,85.25
2022-10-04T06:14:48.628Z,84.92
2022-10-04T06:17:15.103Z,84.50
2022-10-04T06:20:02.808Z,84.09
2022-10-04T06:22:29.824Z,84.37
2022-10-04T06:25:07.163Z,83.70
2022-10-04T06:27:37.094Z,83.21
2022-10-04T06:30:06.065Z,83.19
2022-10-04T06:32:43.924Z,82.91
2022-10-04T06:35:47.964Z,82.98
2022-10-04T06:38:47.281Z,82.50
2022-10-04T06:41:25.587Z,82.48
2022-10-04T06:44:16.917Z,81.89
2022-10-04T06:46:58.648Z,82.37
2022-10-04T06:49:49.537Z,81.76
2022-10-04T06:52:34.926Z,82.65
2022-10-04T06:55:11.029Z,82.65
2022-10-04T06:57:53.720Z,82.45
2022-10-04T07:00:24.320Z,81.52
2022-10-04T07:03:12.586Z,81.76
2022-10-04T07:05:48.292Z,82.15
2022-10-04T07:08:31.543Z,82.28
2022-10-04T07:11:13.775Z,81.75
2022-10-04T07:13:47.987Z,81.44
2022-10-04T07:16:27.736Z,81.86
2022-10-04T07:19:28.470Z,81.03
2022-10-04T07:22:21.373Z,80.59
2022-10-04T07:24:47.899Z,81.52
2022-10-04T07:27:36.755Z,81.38
2022-10-04T07:30:15.391Z,81.77
2022-10-04T07:32:51.225Z,81.46
2022-10-04T07:35:36.039Z,80.91
2022-10-04T07:38:10.848Z,80.24
2022-10-04T07:40:38.815Z,80.16
2022-10-04T07:43:26.927Z,80.26
2022-10-04T07:45:54.798Z,79.70
2022-10-04T07:48:24.069Z,79.45
2022-10-04T07:51:28.143Z,79.74
2022-10-04T07:53:59.220Z,79.12
2022-10-04T07:56:47.713Z,78.73
2022-10-04T07:59:39.088Z,78.29
2022-10-04T08:02:08.793Z,78.56
2022-10-04T08:04:50.772Z,78.69
2022-10-04T08:07:31.754Z,79.55
2022-10-04T08:10:14.617Z,79.21
2022-10-04T08:13:03.464Z,79.47
2022-10-04T08:15:40.634Z,80.28
2022-10-04T08:18:10.403Z,80.18
2022-10-04T08:20:36.917Z,80.17
2022-10-04T08:23:24.107Z,80.58
2022-10-04T08:26:04.018Z,80.47
2022-10-04T08:29:20.324Z,80.50
2022-10-04T08:32:05.631Z,80.17
2022-10-04T08:34:43.297Z,79.61
2022-10-04T08:37:47.050Z,79.17
2022-10-04T08:40:51.380Z,79.61
2022-10-04T08:43:30.718Z,80.17
2022-10-04T08:46:35.802Z,80.18
2022-10-04T08:49:21.507Z,80.07
2022-10-04T08:52:09.587Z,80.03
2022-10-04T08:55:26.544Z,79.25
2022-10-04T08:58:29.974Z,79.47
2022-10-04T09:01:22.997Z,78.87
2022-10-04T09:04:02.557Z,79.55
2022-10-04T09:07:06.804Z,79.58
2022-10-04T09:09:48.518Z,78.95
2022-10-04T09:12:26.311Z,78.24
2022-10-04T09:15:02.259Z,78.57
2022-10-04T09:17:37.747Z,78.80
2022-10-04T09:20:38.465Z,78.42
2022-10-04T09:23:24.226Z,78.10
2022-10-04T09:25:53.816Z,77.56
2022-10-04T09:28:36.875Z,77.59
2022-10-04T09:31:45.491Z,74.62
2022-10-04T09:34:45.900Z,72.77
2022-10-04T09:37:34.429Z,73.27
2022-10-04T09:40:27.637Z,72.53
2022-10-04T09:43:46.847Z,70.76
2022-10-04T09:46:56.158Z,72.00
2022-10-04T09:49:32.725Z,71.77
2022-10-04T09:52:24.396Z,72.01
2022-10-04T09:55:14.244Z,71.31
2022-10-04T09:58:19.674Z,70.87
2022-10-04T10:00:56.378Z,70.30
2022-10-04T10:03:46.549Z,70.54
2022-10-04T10:06:21.817Z,70.35
2022-10-04T10:08:58.966Z,71.42
2022-10-04T10:11:59.482Z,72.14
2022-10-04T10:14:41.365Z,71.91
2022-10-04T10:17:15.395Z,72.59
2022-10-04T10:23:34.406Z,73.03
2022-10-04T10:26:24.901Z,74.41
2022-10-04T10:29:26.286Z,74.12
2022-10-04T10:31:58.990Z,74.03
2022-10-04T10:34:37.731Z,74.16
2022-10-04T10:37:16.717Z,74.22
2022-10-04T10:40:16.982Z,73.43
2022-10-04T10:42:56.249Z,73.33
2022-10-04T10:45:35.098Z,73.59
2022-10-04T10:48:26.627Z,73.02
2022-10-04T10:51:31.447Z,71.84
2022-10-04T10:54:35.625Z,71.23
2022-10-04T10:57:11.130Z,71.27
2022-10-04T11:00:11.848Z,71.33
2022-10-04T11:03:14.599Z,71.55
2022-10-04T11:05:51.473Z,71.21
2022-10-04T11:08:56.622Z,69.63
2022-10-04T11:11:26.109Z,68.87
2022-10-04T11:14:20.112Z,68.76
2022-10-04T11:17:07.604Z,68.44
2022-10-04T11:20:05.545Z,68.34
2022-10-04T11:22:50.806Z,68.36
2022-10-04T11:25:51.490Z,69.03
2022-10-04T11:28:28.014Z,66.20
2022-10-04T11:31:26.940Z,66.58
2022-10-04T11:33:59.666Z,67.06
2022-10-04T11:36:50.768Z,67.83
2022-10-04T11:39:20.211Z,68.12
2022-10-04T11:42:34.458Z,68.10
2022-10-04T11:45:33.498Z,66.49
2022-10-04T11:48:30.609Z,62.27
2022-10-04T11:51:27.838Z,63.40
2022-10-04T11:54:14.429Z,63.43
2022-10-04T11:56:44.196Z,62.26
2022-10-04T11:59:18.396Z,63.54
2022-10-04T12:02:22.680Z,61.99
2022-10-04T12:05:13.437Z,62.24
2022-10-04T12:07:53.124Z,62.14
2022-10-04T12:10:31.790Z,61.35
2022-10-04T12:13:10.430Z,60.61
2022-10-04T12:15:40.781Z,59.69
2022-10-04T12:18:28.602Z,60.89
2022-10-04T12:21:34.899Z,60.56
2022-10-04T12:24:19.971Z,60.57
2022-10-04T12:26:56.296Z,61.06
2022-10-04T12:29:50.792Z,60.23
2022-10-04T12:32:18.393Z,60.12
2022-10-04T12:35:05.992Z,59.43
2022-10-04T12:37:38.868Z,58.60
2022-10-04T12:40:24.078Z,59.26
2022-10-04T12:43:06.189Z,58.69
2022-10-04T12:45:38.695Z,57.17
2022-10-04T12:48:33.309Z,56.71
2022-10-04T12:51:05.323Z,57.19
2022-10-04T12:53:58.945Z,58.36
2022-10-04T12:56:33.180Z,59.36
2022-10-04T12:59:24.850Z,59.19
2022-10-04T13:02:09.535Z,59.47
2022-10-04T13:04:47.582Z,60.09
2022-10-04T13:07:14.269Z,60.76
2022-10-04T13:10:22.494Z,60.54
2022-10-04T13:13:14.774Z,60.60
2022-10-04T13:18:57.978Z,59.12
2022-10-04T13:21:43.632Z,59.57
2022-10-04T13:24:55.684Z,57.77
2022-10-04T13:27:33.609Z,57.95
2022-10-04T13:30:02.680Z,57.88
2022-10-04T13:32:56.989Z,58.98
2022-10-04T13:35:50.182Z,59.09
2022-10-04T13:38:35.658Z,58.44
2022-10-04T13:41:32.096Z,58.70
2022-10-04T13:44:56.334Z,59.59
2022-10-04T13:47:47.481Z,60.20
2022-10-04T13:50:27.419Z,61.05
2022-10-04T13:53:35.049Z,61.26
2022-10-04T13:56:23.334Z,60.71
2022-10-04T13:58:58.889Z,61.18
2022-10-04T14:01:49.922Z,61.58
2022-10-04T14:04:46.138Z,61.23
2022-10-04T14:07:33.368Z,61.61
2022-10-04T14:10:19.606Z,62.87
2022-10-04T14:12:49.159Z,63.74
2022-10-04T14:15:28.125Z,64.47
2022-10-04T14:18:11.980Z,64.74
2022-10-04T14:20:52.282Z,65.29
2022-10-04T14:24:08.555Z,65.22
2022-10-04T14:27:17.184Z,65.63
2022-10-04T14:30:06.495Z,64.62
2022-10-04T14:33:02.085Z,65.00
2022-10-04T14:35:45.604Z,65.57
2022-10-04T14:38:15.746Z,66.23
2022-10-04T14:41:03.816Z,66.75
2022-10-04T14:44:02.089Z,66.95
2022-10-04T14:46:35.330Z,67.18
2022-10-04T14:49:30.133Z,67.24
2022-10-04T14:52:04.449Z,67.52
2022-10-04T14:54:35.304Z,67.54
2022-10-04T14:57:07.050Z,68.96
2022-10-04T14:59:53.720Z,69.67
2022-10-04T15:02:35.178Z,69.46
2022-10-04T15:05:23.694Z,70.73
2022-10-04T15:07:55.422Z,70.26
2022-10-04T15:10:31.862Z,70.27
2022-10-04T15:13:20.860Z,70.25
2022-10-04T15:16:27.254Z,70.30
2022-10-04T15:18:56.361Z,70.53
2022-10-04T15:21:35.009Z,70.67
2022-10-04T15:24:16.686Z,70.97
2022-10-04T15:26:51.137Z,71.26
2022-10-04T15:29:52.989Z,71.42
2022-10-04T15:32:40.960Z,71.71
2022-10-04T15:35:13.542Z,72.21
2022-10-04T15:38:15.035Z,71.50
2022-10-04T15:40:54.047Z,71.72
2022-10-04T15:43:50.293Z,72.04
2022-10-04T15:46:36.196Z,72.71
2022-10-04T15:49:25.622Z,72.57
2022-10-04T15:52:03.645Z,72.84
2022-10-04T15:54:47.764Z,73.16
2022-10-04T15:57:28.498Z,73.08
2022-10-04T16:00:02.759Z,73.93
2022-10-04T16:03:20.362Z,73.90
2022-10-04T16:06:01.223Z,73.44
2022-10-04T16:08:48.606Z,74.01
2022-10-04T16:11:52.448Z,73.90
2022-10-04T16:14:43.208Z,73.80
2022-10-04T16:17:27.210Z,73.93
2022-10-04T16:20:03.206Z,73.61
2022-10-04T16:22:33.671Z,74.16
2022-10-04T16:25:25.593Z,74.18
2022-10-04T16:27:56.043Z,74.99
2022-10-04T16:30:34.797Z,75.47
2022-10-04T16:33:10.430Z,75.75
2022-10-04T16:35:49.800Z,76.14
2022-10-04T16:38:24.347Z,75.83
2022-10-04T16:40:50.837Z,76.45
2022-10-04T16:43:17.340Z,75.97
2022-10-04T16:45:48.343Z,76.42
2022-10-04T16:48:46.686Z,76.58
2022-10-04T16:51:13.359Z,76.82
2022-10-04T16:53:49.097Z,77.10
2022-10-04T16:56:23.803Z,76.63
2022-10-04T16:59:13.594Z,76.78
2022-10-04T17:02:03.505Z,77.14
2022-10-04T17:04:36.017Z,77.79
2022-10-04T17:07:18.331Z,77.81
2022-10-04T17:09:57.165Z,78.08
2022-10-04T17:12:35.541Z,78.53
2022-10-04T17:15:17.242Z,78.96
2022-10-04T17:18:11.445Z,79.23
2022-10-04T17:20:50.377Z,79.70
2022-10-04T17:23:47.773Z,79.71
2022-10-04T17:26:38.448Z,79.55
2022-10-04T17:29:24.289Z,79.65
2022-10-04T17:31:56.971Z,79.86
2022-10-04T17:34:58.869Z,79.92
2022-10-04T17:37:44.721Z,79.49
2022-10-04T17:40:17.422Z,79.68
2022-10-04T17:42:56.089Z,79.48
2022-10-04T17:45:29.335Z,80.32
2022-10-04T17:48:29.098Z,80.18
2022-10-04T17:51:24.897Z,78.72
2022-10-04T17:54:10.986Z,79.04
2022-10-04T17:56:52.997Z,78.82
2022-10-04T17:59:29.974Z,78.90
2022-10-04T18:02:10.240Z,78.77
2022-10-04T18:04:37.451Z,78.38
2022-10-04T18:07:04.022Z,78.29
2022-10-04T18:09:32.612Z,78.44
2022-10-04T18:12:11.411Z,78.20
2022-10-04T18:14:45.536Z,78.23
2022-10-04T18:17:26.013Z,78.21
2022-10-04T18:19:58.456Z,78.43
2022-10-04T18:22:30.142Z,78.05
2022-10-04T18:25:13.000Z,78.04
2022-10-04T18:27:50.245Z,77.79
2022-10-04T18:30:20.964Z,78.09
2022-10-04T18:32:51.540Z,77.83
2022-10-04T18:35:27.028Z,78.10
2022-10-04T18:37:55.347Z,78.80
2022-10-04T18:40:26.660Z,79.35
2022-10-04T18:42:57.183Z,78.49
2022-10-04T18:45:28.501Z,79.02
2022-10-04T18:47:56.059Z,78.96
2022-10-04T18:50:22.628Z,78.86
2022-10-04T18:53:09.198Z,79.21
2022-10-04T18:55:50.388Z,79.19
2022-10-04T19:02:16.394Z,79.74
2022-10-04T19:05:09.166Z,80.29
2022-10-04T19:07:48.354Z,80.53
2022-10-04T19:10:27.526Z,80.44
2022-10-04T19:13:23.432Z,80.71
2022-10-04T19:16:16.036Z,81.45
2022-10-04T19:18:57.945Z,81.38
2022-10-04T19:21:35.082Z,81.48
2022-10-04T19:24:26.681Z,81.79
2022-10-04T19:27:06.303Z,81.82
2022-10-04T19:29:54.898Z,81.87
2022-10-04T19:32:45.938Z,81.67
2022-10-04T19:35:49.443Z,81.22
2022-10-04T19:38:30.487Z,80.83
2022-10-04T19:41:29.576Z,80.94
2022-10-04T19:44:27.034Z,81.11
2022-10-04T19:47:26.661Z,81.37
2022-10-04T19:50:07.391Z,81.59
2022-10-04T19:52:43.468Z,81.19
2022-10-04T19:55:19.626Z,81.66
2022-10-04T19:57:51.578Z,82.13
2022-10-04T20:00:20.303Z,81.77
2022-10-04T20:02:48.938Z,82.13
2022-10-04T20:05:24.951Z,82.52
2022-10-04T20:07:55.751Z,82.43
2022-10-04T20:10:29.118Z,82.14
2022-10-04T20:13:12.275Z,82.41
2022-10-04T20:15:38.894Z,82.73
2022-10-04T20:18:31.731Z,82.34
2022-10-04T20:21:01.549Z,82.55
2022-10-04T20:23:40.597Z,82.53
2022-10-04T20:26:11.292Z,82.87
2022-10-04T20:28:40.722Z,82.40
2022-10-04T20:31:30.469Z,83.12
2022-10-04T20:34:23.641Z,83.75
2022-10-04T20:36:51.839Z,83.60
2022-10-04T20:39:40.185Z,83.60
2022-10-04T20:42:26.385Z,83.01
2022-10-04T20:44:59.442Z,83.24
2022-10-04T20:47:35.276Z,83.19
2022-10-04T20:50:01.964Z,83.08
2022-10-04T20:52:32.543Z,83.13
2022-10-04T20:55:03.112Z,83.26
2022-10-04T20:57:30.477Z,83.27
2022-10-04T20:59:57.770Z,83.30
2022-10-04T21:02:27.539Z,82.74
2022-10-04T21:04:54.322Z,82.83
2022-10-04T21:07:22.721Z,82.51
2022-10-04T21:09:51.006Z,82.61
2022-10-04T21:12:39.535Z,82.48
2022-10-04T21:15:06.661Z,82.63
2022-10-04T21:17:33.932Z,82.21
2022-10-04T21:20:00.575Z,82.87
2022-10-04T21:22:28.018Z,83.20
2022-10-04T21:24:56.325Z,83.02
2022-10-04T21:27:28.918Z,83.36
2022-10-04T21:29:56.558Z,82.77
2022-10-04T21:32:23.996Z,82.69
2022-10-04T21:34:53.509Z,82.90
2022-10-04T21:37:20.863Z,82.92
2022-10-04T21:39:47.507Z,83.11
2022-10-04T21:42:14.116Z,83.50
2022-10-04T21:44:40.707Z,83.59
2022-10-04T21:47:07.359Z,83.91
2022-10-04T21:49:34.438Z,83.57
2022-10-04T21:52:01.086Z,83.37
2022-10-04T21:54:27.670Z,83.46
2022-10-04T21:56:54.309Z,83.73
2022-10-04T21:59:21.268Z,83.94
2022-10-04T22:01:48.067Z,83.80
2022-10-04T22:04:14.646Z,84.05
2022-10-04T22:06:41.352Z,83.52
2022-10-04T22:09:08.013Z,84.26
2022-10-04T22:11:35.160Z,83.79
2022-10-04T22:14:01.873Z,84.37
2022-10-04T22:16:28.580Z,84.01
2022-10-04T22:18:55.275Z,83.90
2022-10-04T22:21:21.932Z,84.02
2022-10-04T22:23:48.617Z,84.16
2022-10-04T22:26:17.398Z,83.86
2022-10-04T22:28:45.921Z,84.19
2022-10-04T22:31:16.811Z,83.85
2022-10-04T22:33:44.641Z,84.09
2022-10-04T22:36:37.034Z,84.55
2022-10-04T22:39:09.515Z,84.43
2022-10-04T22:41:40.867Z,84.56
2022-10-04T22:44:18.014Z,84.16
2022-10-04T22:46:46.563Z,84.03
2022-10-04T22:49:18.011Z,83.85
2022-10-04T22:51:45.407Z,84.00
2022-10-04T22:54:13.203Z,83.91
2022-10-04T22:56:40.316Z,84.22
2022-10-04T22:59:10.289Z,84.05
2022-10-04T23:01:36.865Z,83.99
2022-10-04T23:04:03.556Z,84.14
2022-10-04T23:06:30.749Z,84.27
2022-10-04T23:08:57.991Z,84.42
2022-10-04T23:11:24.575Z,84.88
2022-10-04T23:13:51.203Z,84.69
2022-10-04T23:16:20.187Z,85.18
2022-10-04T23:18:46.820Z,85.07
2022-10-04T23:21:20.783Z,84.77
2022-10-04T23:23:48.170Z,84.80
2022-10-04T23:26:25.074Z,84.90
2022-10-04T23:28:51.723Z,85.08
2022-10-04T23:31:25.676Z,85.01
2022-10-04T23:33:53.654Z,84.90
2022-10-04T23:36:23.362Z,85.34
2022-10-04T23:38:51.935Z,85.43
2022-10-04T23:41:31.871Z,85.71
2022-10-04T23:43:58.502Z,85.58
2022-10-04T23:46:25.083Z,85.79
2022-10-04T23:48:51.750Z,86.14
2022-10-04T23:51:18.952Z,85.90
2022-10-04T23:53:46.798Z,86.26
2022-10-04T23:56:20.350Z,86.10
2022-10-04T23:58:47.094Z,86.18
